sensor_id;sensor_type;location;lat;lon;timestamp;pressure;altitude;pressure_sealevel;temperature;humidity
62703;BME280;66022;50.448;18.122;2023-01-28T00:02:32;99728.96;;;1.09;82.80
62703;BME280;66022;50.448;18.122;2023-01-28T00:06:45;99729.69;;;1.08;83.25
62703;BME280;66022;50.448;18.122;2023-01-28T00:11:00;99729.32;;;1.10;82.88
62703;BME280;66022;50.448;18.122;2023-01-28T00:15:13;99729.91;;;1.11;83.99
62703;BME280;66022;50.448;18.122;2023-01-28T00:19:27;99730.03;;;1.12;83.18
62703;BME280;66022;50.448;18.122;2023-01-28T00:23:42;99730.35;;;1.11;83.79
62703;BME280;66022;50.448;18.122;2023-01-28T00:27:55;99730.94;;;1.12;83.93
62703;BME280;66022;50.448;18.122;2023-01-28T00:32:09;99730.60;;;1.12;84.02
62703;BME280;66022;50.448;18.122;2023-01-28T00:36:24;99730.47;;;1.06;85.02
62703;BME280;66022;50.448;18.122;2023-01-28T00:40:37;99730.59;;;1.07;84.87
62703;BME280;66022;50.448;18.122;2023-01-28T00:44:51;99730.93;;;1.05;87.17
62703;BME280;66022;50.448;18.122;2023-01-28T00:49:05;99731.47;;;1.06;85.22
62703;BME280;66022;50.448;18.122;2023-01-28T00:53:19;99730.97;;;1.06;85.27
62703;BME280;66022;50.448;18.122;2023-01-28T00:57:33;99731.34;;;1.05;85.45
62703;BME280;66022;50.448;18.122;2023-01-28T01:01:47;99731.59;;;1.04;85.53
62703;BME280;66022;50.448;18.122;2023-01-28T01:06:01;99731.67;;;1.00;86.28
62703;BME280;66022;50.448;18.122;2023-01-28T01:10:16;99731.54;;;1.01;85.46
62703;BME280;66022;50.448;18.122;2023-01-28T01:14:29;99731.49;;;1.00;87.61
62703;BME280;66022;50.448;18.122;2023-01-28T01:18:43;99730.97;;;1.03;85.71
62703;BME280;66022;50.448;18.122;2023-01-28T01:22:57;99731.67;;;1.05;85.44
62703;BME280;66022;50.448;18.122;2023-01-28T01:27:11;99733.00;;;1.05;85.47
62703;BME280;66022;50.448;18.122;2023-01-28T01:31:25;99733.62;;;1.06;85.49
62703;BME280;66022;50.448;18.122;2023-01-28T01:35:39;99734.69;;;1.06;86.30
62703;BME280;66022;50.448;18.122;2023-01-28T01:39:53;99735.61;;;1.06;85.00
62703;BME280;66022;50.448;18.122;2023-01-28T01:48:27;99737.66;;;1.01;85.13
62703;BME280;66022;50.448;18.122;2023-01-28T01:52:35;99738.95;;;1.00;85.26
62703;BME280;66022;50.448;18.122;2023-01-28T01:56:49;99740.84;;;0.97;85.38
62703;BME280;66022;50.448;18.122;2023-01-28T02:01:03;99743.03;;;0.98;85.14
62703;BME280;66022;50.448;18.122;2023-01-28T02:05:19;99744.40;;;0.96;86.04
62703;BME280;66022;50.448;18.122;2023-01-28T02:09:32;99746.04;;;0.96;85.32
62703;BME280;66022;50.448;18.122;2023-01-28T02:13:46;99747.71;;;0.93;85.79
62703;BME280;66022;50.448;18.122;2023-01-28T02:17:59;99749.11;;;0.93;85.40
62703;BME280;66022;50.448;18.122;2023-01-28T02:26:32;99751.82;;;0.88;85.72
62703;BME280;66022;50.448;18.122;2023-01-28T02:30:41;99753.81;;;0.88;85.55
62703;BME280;66022;50.448;18.122;2023-01-28T02:34:58;99755.46;;;0.86;86.51
62703;BME280;66022;50.448;18.122;2023-01-28T02:39:12;99757.40;;;0.87;85.45
62703;BME280;66022;50.448;18.122;2023-01-28T02:47:37;99760.80;;;0.87;85.70
62703;BME280;66022;50.448;18.122;2023-01-28T03:00:24;99766.30;;;0.85;85.22
62703;BME280;66022;50.448;18.122;2023-01-28T03:04:35;99767.28;;;0.82;87.17
62703;BME280;66022;50.448;18.122;2023-01-28T03:08:52;99768.06;;;0.84;85.17
62703;BME280;66022;50.448;18.122;2023-01-28T03:13:01;99767.91;;;0.84;84.85
62703;BME280;66022;50.448;18.122;2023-01-28T03:17:20;99768.31;;;0.84;84.40
62703;BME280;66022;50.448;18.122;2023-01-28T03:21:33;99769.26;;;0.85;84.08
62703;BME280;66022;50.448;18.122;2023-01-28T03:25:43;99770.89;;;0.84;85.00
62703;BME280;66022;50.448;18.122;2023-01-28T03:30:01;99772.42;;;0.86;84.07
62703;BME280;66022;50.448;18.122;2023-01-28T03:34:11;99773.99;;;0.82;86.21
62703;BME280;66022;50.448;18.122;2023-01-28T03:38:25;99774.86;;;0.84;84.46
62703;BME280;66022;50.448;18.122;2023-01-28T03:42:39;99774.41;;;0.86;83.37
62703;BME280;66022;50.448;18.122;2023-01-28T03:46:53;99775.14;;;0.85;84.14
62703;BME280;66022;50.448;18.122;2023-01-28T03:51:07;99775.89;;;0.86;83.96
62703;BME280;66022;50.448;18.122;2023-01-28T03:55:21;99776.01;;;0.84;84.47
62703;BME280;66022;50.448;18.122;2023-01-28T03:59:35;99775.47;;;0.85;83.85
62703;BME280;66022;50.448;18.122;2023-01-28T04:03:49;99776.25;;;0.83;84.66
62703;BME280;66022;50.448;18.122;2023-01-28T04:08:03;99777.87;;;0.85;83.41
62703;BME280;66022;50.448;18.122;2023-01-28T04:12:17;99778.79;;;0.86;82.76
62703;BME280;66022;50.448;18.122;2023-01-28T04:16:31;99779.69;;;0.85;82.30
62703;BME280;66022;50.448;18.122;2023-01-28T04:20:47;99780.24;;;0.88;82.30
62703;BME280;66022;50.448;18.122;2023-01-28T04:24:59;99780.49;;;0.88;83.48
62703;BME280;66022;50.448;18.122;2023-01-28T04:29:13;99781.82;;;0.91;81.99
62703;BME280;66022;50.448;18.122;2023-01-28T04:33:27;99782.61;;;0.92;81.92
62703;BME280;66022;50.448;18.122;2023-01-28T04:37:41;99782.86;;;0.93;81.84
62703;BME280;66022;50.448;18.122;2023-01-28T04:41:55;99784.06;;;0.94;81.72
62703;BME280;66022;50.448;18.122;2023-01-28T04:46:09;99784.84;;;0.90;82.47
62703;BME280;66022;50.448;18.122;2023-01-28T04:50:23;99785.63;;;0.90;81.91
62703;BME280;66022;50.448;18.122;2023-01-28T04:54:37;99786.40;;;0.88;82.73
62703;BME280;66022;50.448;18.122;2023-01-28T04:58:51;99787.44;;;0.88;82.22
62703;BME280;66022;50.448;18.122;2023-01-28T05:03:05;99789.25;;;0.87;82.50
62703;BME280;66022;50.448;18.122;2023-01-28T05:07:20;99789.95;;;0.86;82.66
62703;BME280;66022;50.448;18.122;2023-01-28T05:11:33;99791.36;;;0.86;82.47
62703;BME280;66022;50.448;18.122;2023-01-28T05:15:51;99794.46;;;0.84;83.15
62703;BME280;66022;50.448;18.122;2023-01-28T05:20:01;99798.27;;;0.87;82.46
62703;BME280;66022;50.448;18.122;2023-01-28T05:24:15;99803.06;;;0.84;83.39
62703;BME280;66022;50.448;18.122;2023-01-28T05:28:29;99806.95;;;0.86;82.31
62703;BME280;66022;50.448;18.122;2023-01-28T05:32:43;99810.89;;;0.88;81.82
62703;BME280;66022;50.448;18.122;2023-01-28T05:36:57;99814.94;;;0.89;82.43
62703;BME280;66022;50.448;18.122;2023-01-28T05:41:11;99819.12;;;0.91;82.02
62703;BME280;66022;50.448;18.122;2023-01-28T05:45:25;99821.78;;;0.91;82.68
62703;BME280;66022;50.448;18.122;2023-01-28T05:49:39;99824.11;;;0.94;82.35
62703;BME280;66022;50.448;18.122;2023-01-28T05:53:53;99825.75;;;0.94;83.57
62703;BME280;66022;50.448;18.122;2023-01-28T05:58:07;99827.10;;;0.99;82.60
62703;BME280;66022;50.448;18.122;2023-01-28T06:02:21;99828.15;;;1.04;82.79
62703;BME280;66022;50.448;18.122;2023-01-28T06:06:35;99829.14;;;1.07;83.35
62703;BME280;66022;50.448;18.122;2023-01-28T06:10:50;99831.41;;;1.12;83.21
62703;BME280;66022;50.448;18.122;2023-01-28T06:15:04;99833.18;;;1.14;83.91
62703;BME280;66022;50.448;18.122;2023-01-28T06:19:17;99834.77;;;1.18;82.83
62703;BME280;66022;50.448;18.122;2023-01-28T06:23:32;99838.50;;;1.21;82.67
62703;BME280;66022;50.448;18.122;2023-01-28T06:27:45;99840.99;;;1.24;83.32
62703;BME280;66022;50.448;18.122;2023-01-28T06:31:59;99844.22;;;1.28;83.10
62703;BME280;66022;50.448;18.122;2023-01-28T06:36:14;99847.33;;;1.27;83.09
62703;BME280;66022;50.448;18.122;2023-01-28T06:40:27;99849.78;;;1.33;82.81
62703;BME280;66022;50.448;18.122;2023-01-28T06:44:41;99852.81;;;1.34;82.93
62703;BME280;66022;50.448;18.122;2023-01-28T06:48:55;99855.97;;;1.38;81.61
62703;BME280;66022;50.448;18.122;2023-01-28T06:53:09;99857.62;;;1.41;82.27
62703;BME280;66022;50.448;18.122;2023-01-28T06:57:23;99860.99;;;1.44;82.41
62703;BME280;66022;50.448;18.122;2023-01-28T07:01:38;99864.67;;;1.48;82.19
62703;BME280;66022;50.448;18.122;2023-01-28T07:05:52;99868.58;;;1.50;82.68
62703;BME280;66022;50.448;18.122;2023-01-28T07:10:06;99873.51;;;1.55;82.19
62703;BME280;66022;50.448;18.122;2023-01-28T07:14:22;99878.14;;;1.54;83.84
62703;BME280;66022;50.448;18.122;2023-01-28T07:18:34;99881.47;;;1.59;82.27
62703;BME280;66022;50.448;18.122;2023-01-28T07:22:48;99885.94;;;1.63;82.06
62703;BME280;66022;50.448;18.122;2023-01-28T07:27:02;99889.42;;;1.66;82.58
62703;BME280;66022;50.448;18.122;2023-01-28T07:31:16;99892.50;;;1.70;82.38
62703;BME280;66022;50.448;18.122;2023-01-28T07:35:30;99897.39;;;1.73;83.22
62703;BME280;66022;50.448;18.122;2023-01-28T07:39:44;99902.20;;;1.77;82.64
62703;BME280;66022;50.448;18.122;2023-01-28T07:43:58;99906.26;;;1.74;84.13
62703;BME280;66022;50.448;18.122;2023-01-28T07:48:12;99909.99;;;1.77;82.91
62703;BME280;66022;50.448;18.122;2023-01-28T07:52:26;99912.44;;;1.80;82.88
62703;BME280;66022;50.448;18.122;2023-01-28T07:56:40;99915.26;;;1.80;83.19
62703;BME280;66022;50.448;18.122;2023-01-28T08:00:57;99917.83;;;1.83;82.82
62703;BME280;66022;50.448;18.122;2023-01-28T08:05:08;99920.76;;;1.84;83.67
62703;BME280;66022;50.448;18.122;2023-01-28T08:09:22;99923.05;;;1.87;82.91
62703;BME280;66022;50.448;18.122;2023-01-28T08:13:36;99923.97;;;1.91;85.31
62703;BME280;66022;50.448;18.122;2023-01-28T08:17:50;99926.50;;;1.96;83.29
62703;BME280;66022;50.448;18.122;2023-01-28T08:22:04;99927.87;;;1.98;83.48
62703;BME280;66022;50.448;18.122;2023-01-28T08:26:18;99930.10;;;1.94;83.86
62703;BME280;66022;50.448;18.122;2023-01-28T08:30:32;99931.67;;;1.93;83.38
62703;BME280;66022;50.448;18.122;2023-01-28T08:34:46;99932.12;;;1.88;84.89
62703;BME280;66022;50.448;18.122;2023-01-28T08:39:00;99932.53;;;1.85;82.57
62703;BME280;66022;50.448;18.122;2023-01-28T08:43:14;99934.14;;;1.80;82.67
62703;BME280;66022;50.448;18.122;2023-01-28T08:47:28;99935.33;;;1.73;83.05
62703;BME280;66022;50.448;18.122;2023-01-28T08:51:42;99936.94;;;1.68;82.76
62703;BME280;66022;50.448;18.122;2023-01-28T08:55:56;99938.07;;;1.57;81.44
62703;BME280;66022;50.448;18.122;2023-01-28T09:00:10;99939.12;;;1.50;80.87
62703;BME280;66022;50.448;18.122;2023-01-28T09:04:24;99940.63;;;1.40;80.93
62703;BME280;66022;50.448;18.122;2023-01-28T09:08:38;99943.77;;;1.37;80.46
62703;BME280;66022;50.448;18.122;2023-01-28T09:12:52;99946.73;;;1.35;79.95
62703;BME280;66022;50.448;18.122;2023-01-28T09:17:06;99949.05;;;1.33;79.40
62703;BME280;66022;50.448;18.122;2023-01-28T09:21:20;99951.78;;;1.33;79.41
62703;BME280;66022;50.448;18.122;2023-01-28T09:25:34;99953.93;;;1.33;79.41
62703;BME280;66022;50.448;18.122;2023-01-28T09:29:48;99957.25;;;1.35;79.05
62703;BME280;66022;50.448;18.122;2023-01-28T09:34:02;99960.57;;;1.33;78.46
62703;BME280;66022;50.448;18.122;2023-01-28T09:38:16;99964.17;;;1.35;77.07
62703;BME280;66022;50.448;18.122;2023-01-28T09:46:44;99968.50;;;1.33;76.49
62703;BME280;66022;50.448;18.122;2023-01-28T09:50:58;99971.37;;;1.35;77.16
62703;BME280;66022;50.448;18.122;2023-01-28T09:59:33;99977.00;;;1.37;76.81
62703;BME280;66022;50.448;18.122;2023-01-28T10:03:46;99978.78;;;1.36;75.98
62703;BME280;66022;50.448;18.122;2023-01-28T10:20:42;99975.90;;;1.40;76.26
62703;BME280;66022;50.448;18.122;2023-01-28T10:24:52;99974.03;;;1.41;75.07
62703;BME280;66022;50.448;18.122;2023-01-28T10:29:26;99969.67;;;1.45;75.79
62703;BME280;66022;50.448;18.122;2023-01-28T10:37:35;99966.43;;;1.55;75.58
62703;BME280;66022;50.448;18.122;2023-01-28T10:41:46;99967.07;;;1.60;75.24
62703;BME280;66022;50.448;18.122;2023-01-28T10:54:29;99965.55;;;1.65;75.52
62703;BME280;66022;50.448;18.122;2023-01-28T10:58:48;99964.11;;;1.71;76.02
62703;BME280;66022;50.448;18.122;2023-01-28T11:02:57;99961.89;;;1.76;76.33
62703;BME280;66022;50.448;18.122;2023-01-28T11:11:26;99959.84;;;1.86;75.78
62703;BME280;66022;50.448;18.122;2023-01-28T11:19:54;99955.10;;;1.97;73.82
62703;BME280;66022;50.448;18.122;2023-01-28T11:28:21;99952.76;;;1.99;75.10
62703;BME280;66022;50.448;18.122;2023-01-28T11:32:35;99951.50;;;2.06;75.06
62703;BME280;66022;50.448;18.122;2023-01-28T11:36:53;99950.38;;;2.12;75.68
62703;BME280;66022;50.448;18.122;2023-01-28T11:41:03;99949.10;;;2.20;74.90
62703;BME280;66022;50.448;18.122;2023-01-28T11:45:19;99948.72;;;2.26;75.14
62703;BME280;66022;50.448;18.122;2023-01-28T11:53:49;99947.56;;;2.33;73.86
62703;BME280;66022;50.448;18.122;2023-01-28T12:44:34;99946.86;;;2.44;75.68
62703;BME280;66022;50.448;18.122;2023-01-28T12:57:17;99949.84;;;2.54;75.55
62703;BME280;66022;50.448;18.122;2023-01-28T13:01:53;99950.87;;;2.56;75.08
62703;BME280;66022;50.448;18.122;2023-01-28T13:05:45;99951.42;;;2.55;74.63
62703;BME280;66022;50.448;18.122;2023-01-28T13:14:11;99953.29;;;2.42;76.16
62703;BME280;66022;50.448;18.122;2023-01-28T13:22:39;99957.44;;;2.31;76.75
62703;BME280;66022;50.448;18.122;2023-01-28T13:27:08;99959.51;;;2.22;77.57
62703;BME280;66022;50.448;18.122;2023-01-28T13:31:10;99961.58;;;2.18;78.86
62703;BME280;66022;50.448;18.122;2023-01-28T13:35:27;99963.06;;;2.14;80.09
62703;BME280;66022;50.448;18.122;2023-01-28T13:39:35;99965.75;;;2.12;80.08
62703;BME280;66022;50.448;18.122;2023-01-28T13:43:49;99967.21;;;2.07;81.24
62703;BME280;66022;50.448;18.122;2023-01-28T13:52:35;99970.92;;;2.01;81.39
62703;BME280;66022;50.448;18.122;2023-01-28T13:56:35;99972.99;;;1.97;82.02
62703;BME280;66022;50.448;18.122;2023-01-28T14:17:45;99982.64;;;1.91;83.59
62703;BME280;66022;50.448;18.122;2023-01-28T14:21:55;99984.50;;;1.92;83.25
62703;BME280;66022;50.448;18.122;2023-01-28T14:34:37;99990.09;;;1.87;86.55
62703;BME280;66022;50.448;18.122;2023-01-28T14:38:51;99991.37;;;1.88;84.96
62703;BME280;66022;50.448;18.122;2023-01-28T14:43:06;99992.58;;;1.90;85.05
62703;BME280;66022;50.448;18.122;2023-01-28T14:51:39;99995.48;;;1.90;85.29
62703;BME280;66022;50.448;18.122;2023-01-28T15:00:01;99997.75;;;1.88;85.32
62703;BME280;66022;50.448;18.122;2023-01-28T15:08:31;100001.62;;;1.81;86.61
62703;BME280;66022;50.448;18.122;2023-01-28T15:12:45;100006.27;;;1.81;85.42
62703;BME280;66022;50.448;18.122;2023-01-28T15:16:57;100009.53;;;1.79;85.74
62703;BME280;66022;50.448;18.122;2023-01-28T15:21:11;100013.17;;;1.79;85.28
62703;BME280;66022;50.448;18.122;2023-01-28T15:25:27;100014.90;;;1.75;86.44
62703;BME280;66022;50.448;18.122;2023-01-28T15:29:39;100018.63;;;1.75;85.76
62703;BME280;66022;50.448;18.122;2023-01-28T15:38:07;100026.73;;;1.68;86.03
62703;BME280;66022;50.448;18.122;2023-01-28T15:42:22;100030.53;;;1.68;86.08
62703;BME280;66022;50.448;18.122;2023-01-28T15:46:38;100033.25;;;1.64;85.96
62703;BME280;66022;50.448;18.122;2023-01-28T15:50:56;100036.69;;;1.63;86.09
62703;BME280;66022;50.448;18.122;2023-01-28T15:55:04;100040.11;;;1.60;86.99
62703;BME280;66022;50.448;18.122;2023-01-28T15:59:20;100043.34;;;1.60;85.63
62703;BME280;66022;50.448;18.122;2023-01-28T16:03:31;100046.90;;;1.58;85.81
62703;BME280;66022;50.448;18.122;2023-01-28T16:07:45;100050.25;;;1.56;86.25
62703;BME280;66022;50.448;18.122;2023-01-28T16:12:03;100055.95;;;1.55;85.53
62703;BME280;66022;50.448;18.122;2023-01-28T16:16:13;100059.45;;;1.49;86.01
62703;BME280;66022;50.448;18.122;2023-01-28T16:20:28;100063.20;;;1.47;85.82
62703;BME280;66022;50.448;18.122;2023-01-28T16:24:47;100066.94;;;1.42;87.16
62703;BME280;66022;50.448;18.122;2023-01-28T16:28:55;100071.03;;;1.40;85.29
62703;BME280;66022;50.448;18.122;2023-01-28T16:37:25;100075.81;;;1.30;86.29
62703;BME280;66022;50.448;18.122;2023-01-28T16:41:42;100077.33;;;1.28;86.05
62703;BME280;66022;50.448;18.122;2023-01-28T16:45:53;100078.65;;;1.25;87.01
62703;BME280;66022;50.448;18.122;2023-01-28T16:50:07;100079.60;;;1.26;86.76
62703;BME280;66022;50.448;18.122;2023-01-28T16:54:20;100081.41;;;1.23;89.07
62703;BME280;66022;50.448;18.122;2023-01-28T16:58:35;100082.51;;;1.24;86.60
62703;BME280;66022;50.448;18.122;2023-01-28T17:15:37;100091.30;;;1.24;87.29
62703;BME280;66022;50.448;18.122;2023-01-28T17:19:46;100092.96;;;1.25;86.92
62703;BME280;66022;50.448;18.122;2023-01-28T17:28:13;100096.95;;;1.22;86.70
62703;BME280;66022;50.448;18.122;2023-01-28T17:32:28;100100.61;;;1.23;86.47
62703;BME280;66022;50.448;18.122;2023-01-28T17:36:41;100103.70;;;1.22;87.03
62703;BME280;66022;50.448;18.122;2023-01-28T17:40:59;100105.98;;;1.23;86.49
62703;BME280;66022;50.448;18.122;2023-01-28T17:45:09;100108.80;;;1.22;87.82
62703;BME280;66022;50.448;18.122;2023-01-28T17:49:24;100111.04;;;1.23;86.69
62703;BME280;66022;50.448;18.122;2023-01-28T17:53:37;100114.23;;;1.24;87.94
62703;BME280;66022;50.448;18.122;2023-01-28T17:57:52;100117.02;;;1.26;87.44
62703;BME280;66022;50.448;18.122;2023-01-28T18:02:05;100121.34;;;1.28;87.53
62703;BME280;66022;50.448;18.122;2023-01-28T18:06:21;100125.56;;;1.22;87.90
62703;BME280;66022;50.448;18.122;2023-01-28T18:10:33;100128.09;;;1.24;86.79
62703;BME280;66022;50.448;18.122;2023-01-28T18:14:47;100130.49;;;1.23;88.94
62703;BME280;66022;50.448;18.122;2023-01-28T18:19:03;100131.87;;;1.25;86.89
62703;BME280;66022;50.448;18.122;2023-01-28T18:23:14;100132.86;;;1.25;86.84
62703;BME280;66022;50.448;18.122;2023-01-28T18:27:28;100134.34;;;1.24;86.50
62703;BME280;66022;50.448;18.122;2023-01-28T18:31:43;100136.38;;;1.23;86.30
62703;BME280;66022;50.448;18.122;2023-01-28T18:35:56;100138.36;;;1.18;86.39
62703;BME280;66022;50.448;18.122;2023-01-28T18:40:11;100140.83;;;1.16;86.00
62703;BME280;66022;50.448;18.122;2023-01-28T18:44:25;100143.47;;;1.11;88.87
62703;BME280;66022;50.448;18.122;2023-01-28T18:48:39;100145.67;;;1.10;86.74
62703;BME280;66022;50.448;18.122;2023-01-28T18:52:53;100148.30;;;1.09;86.39
62703;BME280;66022;50.448;18.122;2023-01-28T18:57:07;100152.59;;;1.06;86.51
62703;BME280;66022;50.448;18.122;2023-01-28T19:01:20;100154.72;;;1.05;86.37
62703;BME280;66022;50.448;18.122;2023-01-28T19:05:35;100154.08;;;1.01;86.53
62703;BME280;66022;50.448;18.122;2023-01-28T19:09:48;100154.17;;;0.98;85.62
62703;BME280;66022;50.448;18.122;2023-01-28T19:14:02;100154.30;;;0.89;88.60
62703;BME280;66022;50.448;18.122;2023-01-28T19:18:16;100155.47;;;0.87;86.23
62703;BME280;66022;50.448;18.122;2023-01-28T19:22:30;100158.28;;;0.84;85.75
62703;BME280;66022;50.448;18.122;2023-01-28T19:30:58;100164.20;;;0.77;86.29
62703;BME280;66022;50.448;18.122;2023-01-28T19:35:13;100167.72;;;0.74;87.81
62703;BME280;66022;50.448;18.122;2023-01-28T19:39:26;100172.52;;;0.74;86.36
62703;BME280;66022;50.448;18.122;2023-01-28T19:43:40;100178.08;;;0.72;85.98
62703;BME280;66022;50.448;18.122;2023-01-28T19:47:54;100183.50;;;0.71;85.59
62703;BME280;66022;50.448;18.122;2023-01-28T19:52:08;100187.63;;;0.71;85.36
62703;BME280;66022;50.448;18.122;2023-01-28T19:56:25;100191.69;;;0.68;85.15
62703;BME280;66022;50.448;18.122;2023-01-28T20:00:36;100194.75;;;0.68;84.34
62703;BME280;66022;50.448;18.122;2023-01-28T20:04:50;100198.99;;;0.66;86.06
62703;BME280;66022;50.448;18.122;2023-01-28T20:09:11;100202.67;;;0.65;84.60
62703;BME280;66022;50.448;18.122;2023-01-28T20:13:21;100205.22;;;0.64;84.63
62703;BME280;66022;50.448;18.122;2023-01-28T20:17:32;100209.63;;;0.63;84.51
62703;BME280;66022;50.448;18.122;2023-01-28T20:21:46;100213.01;;;0.62;84.37
62703;BME280;66022;50.448;18.122;2023-01-28T20:26:00;100216.03;;;0.59;84.77
62703;BME280;66022;50.448;18.122;2023-01-28T20:30:14;100218.02;;;0.59;83.64
62703;BME280;66022;50.448;18.122;2023-01-28T20:34:28;100221.11;;;0.55;85.24
62703;BME280;66022;50.448;18.122;2023-01-28T20:38:43;100223.85;;;0.55;83.88
62703;BME280;66022;50.448;18.122;2023-01-28T20:42:56;100226.03;;;0.54;84.13
62703;BME280;66022;50.448;18.122;2023-01-28T20:47:11;100229.27;;;0.52;84.16
62703;BME280;66022;50.448;18.122;2023-01-28T20:51:27;100233.32;;;0.52;83.99
62703;BME280;66022;50.448;18.122;2023-01-28T20:55:38;100236.32;;;0.50;83.61
62703;BME280;66022;50.448;18.122;2023-01-28T20:59:52;100238.55;;;0.50;83.15
62703;BME280;66022;50.448;18.122;2023-01-28T21:04:09;100240.59;;;0.45;83.86
62703;BME280;66022;50.448;18.122;2023-01-28T21:08:20;100242.83;;;0.45;83.03
62703;BME280;66022;50.448;18.122;2023-01-28T21:12:34;100245.97;;;0.45;82.25
62703;BME280;66022;50.448;18.122;2023-01-28T21:16:48;100248.54;;;0.42;83.11
62703;BME280;66022;50.448;18.122;2023-01-28T21:21:03;100249.25;;;0.43;81.88
62703;BME280;66022;50.448;18.122;2023-01-28T21:25:16;100250.43;;;0.42;82.35
62703;BME280;66022;50.448;18.122;2023-01-28T21:29:31;100251.33;;;0.41;80.93
62703;BME280;66022;50.448;18.122;2023-01-28T21:33:51;100252.58;;;0.37;81.32
62703;BME280;66022;50.448;18.122;2023-01-28T21:37:58;100254.21;;;0.36;81.34
62703;BME280;66022;50.448;18.122;2023-01-28T21:42:12;100256.22;;;0.35;81.55
62703;BME280;66022;50.448;18.122;2023-01-28T21:46:28;100258.40;;;0.31;81.68
62703;BME280;66022;50.448;18.122;2023-01-28T21:50:40;100260.16;;;0.32;80.91
62703;BME280;66022;50.448;18.122;2023-01-28T21:54:54;100262.89;;;0.30;81.82
62703;BME280;66022;50.448;18.122;2023-01-28T21:59:09;100266.49;;;0.31;81.49
62703;BME280;66022;50.448;18.122;2023-01-28T22:03:23;100269.80;;;0.31;80.71
62703;BME280;66022;50.448;18.122;2023-01-28T22:07:36;100273.24;;;0.30;80.79
62703;BME280;66022;50.448;18.122;2023-01-28T22:11:50;100276.65;;;0.30;80.78
62703;BME280;66022;50.448;18.122;2023-01-28T22:16:05;100280.69;;;0.26;80.46
62703;BME280;66022;50.448;18.122;2023-01-28T22:20:19;100281.23;;;0.27;80.09
62703;BME280;66022;50.448;18.122;2023-01-28T22:24:33;100281.72;;;0.22;79.85
62703;BME280;66022;50.448;18.122;2023-01-28T22:28:47;100285.50;;;0.21;79.73
62703;BME280;66022;50.448;18.122;2023-01-28T22:33:01;100289.98;;;0.19;79.48
62703;BME280;66022;50.448;18.122;2023-01-28T22:37:15;100292.25;;;0.16;79.77
62703;BME280;66022;50.448;18.122;2023-01-28T22:41:29;100293.31;;;0.15;79.93
62703;BME280;66022;50.448;18.122;2023-01-28T22:45:43;100295.26;;;0.13;80.13
62703;BME280;66022;50.448;18.122;2023-01-28T22:49:56;100295.15;;;0.11;79.32
62703;BME280;66022;50.448;18.122;2023-01-28T22:54:11;100294.48;;;0.05;78.94
62703;BME280;66022;50.448;18.122;2023-01-28T22:58:25;100291.50;;;0.04;78.71
62703;BME280;66022;50.448;18.122;2023-01-28T23:02:39;100287.48;;;0.03;79.19
62703;BME280;66022;50.448;18.122;2023-01-28T23:06:53;100285.17;;;0.01;79.07
62703;BME280;66022;50.448;18.122;2023-01-28T23:11:07;100282.20;;;0.01;78.42
62703;BME280;66022;50.448;18.122;2023-01-28T23:15:21;100279.21;;;0.00;79.45
62703;BME280;66022;50.448;18.122;2023-01-28T23:19:35;100275.94;;;0.02;79.04
62703;BME280;66022;50.448;18.122;2023-01-28T23:23:48;100272.99;;;0.00;79.16
62703;BME280;66022;50.448;18.122;2023-01-28T23:28:03;100272.13;;;0.01;78.38
62703;BME280;66022;50.448;18.122;2023-01-28T23:32:17;100269.78;;;0.02;77.83
62703;BME280;66022;50.448;18.122;2023-01-28T23:36:31;100267.03;;;0.00;77.79
62703;BME280;66022;50.448;18.122;2023-01-28T23:40:45;100263.05;;;0.02;76.53
62703;BME280;66022;50.448;18.122;2023-01-28T23:44:59;100257.65;;;0.00;77.14
62703;BME280;66022;50.448;18.122;2023-01-28T23:49:13;100253.88;;;0.02;75.49
62703;BME280;66022;50.448;18.122;2023-01-28T23:53:26;100254.08;;;0.02;75.06
62703;BME280;66022;50.448;18.122;2023-01-28T23:57:40;100252.89;;;0.02;75.46
